Time;durP1;ratioP1;P1;durP2;ratioP2;P2;SDS_P1;SDS_P2;PMS_P1;PMS_P2;Temp;Humidity;BMP_temperature;BMP_pressure;BME280_temperature;BME280_humidity;BME280_pressure;Samples;Min_cycle;Max_cycle;Signal;HPM_P1;HPM_P2
2023/05/12 00:01:55;;;;;;;15.80;9.68;;;10.80;99.90;;;;;;4958752;28;20046;-79
2023/05/12 00:04:21;;;;;;;21.83;11.13;;;10.80;99.90;;;;;;4963360;28;20525;-79
2023/05/12 00:06:47;;;;;;;20.38;10.75;;;10.80;99.90;;;;;;4959653;28;20043;-79
2023/05/12 00:09:12;;;;;;;16.52;8.15;;;10.80;99.90;;;;;;4959793;28;20051;-79
2023/05/12 00:11:38;;;;;;;10.98;6.82;;;10.80;99.90;;;;;;4945009;28;20035;-79
2023/05/12 00:14:04;;;;;;;11.32;6.68;;;10.80;99.90;;;;;;4961270;28;20634;-78
2023/05/12 00:16:30;;;;;;;12.07;7.07;;;10.80;99.90;;;;;;4940821;28;20047;-80
2023/05/12 00:18:55;;;;;;;12.35;6.70;;;10.80;99.90;;;;;;4961943;28;20038;-80
2023/05/12 00:21:21;;;;;;;13.07;5.85;;;10.80;99.90;;;;;;4944195;28;20054;-81
2023/05/12 00:23:46;;;;;;;9.90;5.47;;;10.80;99.90;;;;;;4946267;28;20055;-81
2023/05/12 00:26:12;;;;;;;9.70;6.13;;;10.70;99.90;;;;;;4959013;28;20523;-78
2023/05/12 00:28:38;;;;;;;8.02;5.13;;;10.70;99.90;;;;;;4959846;28;20043;-79
2023/05/12 00:31:04;;;;;;;11.30;4.93;;;10.80;99.90;;;;;;4957060;28;20073;-79
2023/05/12 00:33:30;;;;;;;8.88;5.00;;;10.70;99.90;;;;;;4927958;28;20066;-77
2023/05/12 00:35:56;;;;;;;9.13;5.18;;;10.70;99.90;;;;;;4946879;28;20046;-77
2023/05/12 00:38:21;;;;;;;10.02;5.10;;;10.70;99.90;;;;;;4937883;28;20047;-77
2023/05/12 00:40:47;;;;;;;9.00;4.88;;;10.80;99.90;;;;;;4941227;28;20039;-77
2023/05/12 00:43:12;;;;;;;10.90;5.43;;;10.70;99.90;;;;;;4960974;28;20054;-77
2023/05/12 00:45:38;;;;;;;10.88;4.82;;;10.70;99.90;;;;;;4937498;28;20692;-78
2023/05/12 00:48:06;;;;;;;10.85;5.28;;;10.70;99.90;;;;;;4941418;28;20046;-77
2023/05/12 00:50:32;;;;;;;12.10;5.45;;;10.70;99.90;;;;;;4956477;28;20066;-77
2023/05/12 00:52:59;;;;;;;12.15;6.20;;;10.80;99.90;;;;;;4941650;28;20498;-77
2023/05/12 00:55:26;;;;;;;12.95;6.22;;;10.80;99.90;;;;;;4958538;28;20054;-77
2023/05/12 00:57:52;;;;;;;10.15;6.43;;;10.80;99.90;;;;;;4960514;28;20054;-77
2023/05/12 01:00:18;;;;;;;15.43;7.53;;;10.80;99.90;;;;;;4937418;28;20035;-78
2023/05/12 01:02:44;;;;;;;11.60;6.90;;;10.80;99.90;;;;;;4958332;28;20462;-77
2023/05/12 01:05:10;;;;;;;14.63;8.13;;;10.80;99.90;;;;;;4925637;28;20164;-77
2023/05/12 01:07:37;;;;;;;15.45;8.25;;;10.80;99.90;;;;;;4961845;28;20395;-78
2023/05/12 01:10:04;;;;;;;12.18;8.65;;;10.80;99.90;;;;;;4961372;28;20050;-77
2023/05/12 01:12:31;;;;;;;16.58;9.02;;;10.80;99.90;;;;;;4960563;28;20049;-77
2023/05/12 01:14:57;;;;;;;21.05;10.30;;;10.80;99.90;;;;;;4922635;28;20449;-79
2023/05/12 01:17:34;;;;;;;19.65;10.25;;;10.80;99.90;;;;;;4956508;28;20057;-77
2023/05/12 01:20:03;;;;;;;21.13;10.65;;;10.80;99.90;;;;;;4954097;28;20042;-78
2023/05/12 01:22:30;;;;;;;19.10;10.45;;;10.80;99.90;;;;;;4940543;28;20081;-77
2023/05/12 01:25:06;;;;;;;23.05;10.90;;;10.80;99.90;;;;;;4953990;28;21418;-77
2023/05/12 01:27:33;;;;;;;25.67;12.95;;;10.90;99.90;;;;;;4959607;28;20122;-77
2023/05/12 01:30:01;;;;;;;27.17;11.55;;;10.90;99.90;;;;;;4961170;28;20046;-77
2023/05/12 01:32:29;;;;;;;22.65;12.68;;;10.80;99.90;;;;;;4959474;28;20050;-77
2023/05/12 01:34:54;;;;;;;24.88;12.98;;;10.80;99.90;;;;;;4943039;28;20110;-77
2023/05/12 01:37:20;;;;;;;21.02;13.00;;;10.90;99.90;;;;;;4962187;28;20074;-77
2023/05/12 01:39:46;;;;;;;28.48;12.70;;;10.90;99.90;;;;;;4959096;28;20538;-78
2023/05/12 01:42:12;;;;;;;22.75;13.25;;;10.90;99.90;;;;;;4939266;28;20118;-77
2023/05/12 01:44:37;;;;;;;26.40;14.65;;;10.90;99.90;;;;;;4956954;28;20130;-78
2023/05/12 01:47:03;;;;;;;30.15;14.80;;;10.90;99.90;;;;;;4958947;28;20057;-77
2023/05/12 01:49:32;;;;;;;30.23;15.93;;;10.80;99.90;;;;;;4925499;28;20470;-78
2023/05/12 01:51:57;;;;;;;25.05;14.68;;;10.80;99.90;;;;;;4958651;28;20058;-78
2023/05/12 01:54:23;;;;;;;34.05;16.95;;;10.90;99.90;;;;;;4960195;28;20059;-78
2023/05/12 01:56:49;;;;;;;32.35;16.58;;;10.80;99.90;;;;;;4940453;28;20494;-78
2023/05/12 01:59:14;;;;;;;36.15;18.73;;;10.80;99.90;;;;;;4958181;28;20054;-78
2023/05/12 02:01:40;;;;;;;37.28;19.75;;;10.80;99.90;;;;;;4959938;28;20055;-78
2023/05/12 02:04:07;;;;;;;36.47;20.23;;;10.80;99.90;;;;;;4957586;28;20214;-78
2023/05/12 02:06:33;;;;;;;37.90;21.05;;;10.80;99.90;;;;;;4942855;28;20082;-79
2023/05/12 02:08:58;;;;;;;37.95;22.08;;;10.90;99.90;;;;;;4960993;28;20082;-78
2023/05/12 02:11:25;;;;;;;44.97;22.27;;;10.90;99.90;;;;;;4924819;28;20055;-78
2023/05/12 02:13:51;;;;;;;37.58;20.65;;;10.90;99.90;;;;;;4943192;28;20176;-78
2023/05/12 02:16:16;;;;;;;42.75;20.75;;;10.80;99.90;;;;;;4924232;28;20047;-79
2023/05/12 02:18:42;;;;;;;42.00;20.00;;;10.80;99.90;;;;;;4922603;28;21999;-77
2023/05/12 02:21:07;;;;;;;38.58;19.40;;;10.90;99.90;;;;;;4964220;28;20544;-77
2023/05/12 02:23:33;;;;;;;35.75;19.25;;;10.90;99.90;;;;;;4942230;28;20105;-78
2023/05/12 02:25:59;;;;;;;42.20;20.73;;;10.80;99.90;;;;;;4928083;28;20048;-78
2023/05/12 02:28:24;;;;;;;40.55;20.58;;;10.90;99.90;;;;;;4929441;28;20047;-78
2023/05/12 02:30:51;;;;;;;38.17;19.30;;;10.90;99.90;;;;;;4927326;28;20053;-78
2023/05/12 02:33:18;;;;;;;46.35;23.23;;;10.90;99.90;;;;;;4961727;28;20042;-77
2023/05/12 02:35:44;;;;;;;43.65;20.25;;;11.00;99.90;;;;;;4960845;28;20054;-77
2023/05/12 02:38:11;;;;;;;42.65;21.38;;;10.90;99.90;;;;;;4928773;28;20497;-77
2023/05/12 02:40:36;;;;;;;46.15;22.52;;;10.90;99.90;;;;;;4943758;28;20074;-77
2023/05/12 02:43:02;;;;;;;49.95;22.10;;;10.90;99.90;;;;;;4932903;28;20390;-77
2023/05/12 02:45:27;;;;;;;46.53;22.33;;;10.90;99.90;;;;;;4941215;28;20651;-77
2023/05/12 02:47:53;;;;;;;45.22;21.25;;;10.90;99.90;;;;;;4958126;28;20054;-77
2023/05/12 02:50:20;;;;;;;60.38;25.52;;;11.00;99.90;;;;;;4909627;28;20039;-77
2023/05/12 02:52:46;;;;;;;56.70;24.70;;;11.00;99.90;;;;;;4925479;29;20353;-77
2023/05/12 02:55:12;;;;;;;55.15;25.13;;;11.00;99.90;;;;;;4922677;29;20043;-76
2023/05/12 02:57:37;;;;;;;57.63;25.00;;;11.00;99.90;;;;;;4922648;29;20062;-76
2023/05/12 03:00:05;;;;;;;55.47;24.30;;;11.00;99.90;;;;;;4925047;29;20043;-76
2023/05/12 03:02:35;;;;;;;60.88;26.42;;;11.00;99.90;;;;;;4925291;29;20043;-77
2023/05/12 03:05:01;;;;;;;65.65;26.77;;;11.00;99.90;;;;;;4941797;28;20058;-77
2023/05/12 03:07:27;;;;;;;70.43;27.27;;;11.10;99.90;;;;;;4925028;28;20058;-77
2023/05/12 03:09:53;;;;;;;69.80;27.85;;;11.10;99.90;;;;;;4921762;29;20411;-76
2023/05/12 03:12:18;;;;;;;67.82;29.63;;;11.10;99.90;;;;;;4924318;29;20388;-77
2023/05/12 03:14:44;;;;;;;71.20;29.45;;;11.10;99.90;;;;;;4942672;28;20057;-76
2023/05/12 03:17:09;;;;;;;66.57;30.00;;;11.10;99.90;;;;;;4911331;28;20448;-76
2023/05/12 03:19:35;;;;;;;74.57;31.33;;;11.20;99.90;;;;;;4936246;28;20051;-77
2023/05/12 03:22:02;;;;;;;77.63;33.08;;;11.10;99.90;;;;;;4909276;28;20502;-74
2023/05/12 03:24:28;;;;;;;72.47;30.77;;;11.10;99.90;;;;;;4923410;28;20044;-77
2023/05/12 03:26:54;;;;;;;75.10;32.50;;;11.20;99.90;;;;;;4924847;29;20771;-77
2023/05/12 03:29:20;;;;;;;75.13;31.55;;;11.20;99.90;;;;;;4926528;28;20054;-77
2023/05/12 03:31:46;;;;;;;76.63;34.03;;;11.20;99.90;;;;;;4940054;28;20484;-78
2023/05/12 03:34:11;;;;;;;76.47;31.33;;;11.20;99.90;;;;;;4925295;29;20035;-77
2023/05/12 03:36:37;;;;;;;73.55;31.45;;;11.20;99.90;;;;;;4940337;28;20521;-77
2023/05/12 03:39:03;;;;;;;79.43;32.33;;;11.20;99.90;;;;;;4939817;28;20518;-76
2023/05/12 03:41:29;;;;;;;81.90;32.17;;;11.20;99.90;;;;;;4924119;29;20130;-77
2023/05/12 03:43:54;;;;;;;89.47;34.92;;;11.20;99.90;;;;;;4924460;29;20133;-78
2023/05/12 03:46:20;;;;;;;87.80;35.00;;;11.30;99.90;;;;;;4920192;29;20558;-77
2023/05/12 03:48:46;;;;;;;89.68;36.30;;;11.30;99.90;;;;;;4942270;29;20078;-77
2023/05/12 03:51:11;;;;;;;87.95;34.08;;;11.30;99.90;;;;;;4950609;28;20169;-77
2023/05/12 03:53:41;;;;;;;87.10;36.17;;;11.30;99.90;;;;;;4963616;28;20509;-78
2023/05/12 03:56:07;;;;;;;92.18;35.25;;;11.30;99.90;;;;;;4960173;28;20047;-77
2023/05/12 03:58:33;;;;;;;88.20;34.55;;;11.30;99.90;;;;;;4943818;28;20051;-77
2023/05/12 04:01:00;;;;;;;89.20;36.47;;;11.30;99.90;;;;;;4942469;28;20039;-77
2023/05/12 04:03:26;;;;;;;91.45;35.15;;;11.40;99.90;;;;;;4961588;28;20059;-75
2023/05/12 04:06:02;;;;;;;93.05;36.83;;;11.40;99.90;;;;;;4962096;28;20448;-76
2023/05/12 04:08:28;;;;;;;91.38;37.38;;;11.40;99.90;;;;;;4946118;28;20035;-75
2023/05/12 04:10:56;;;;;;;86.05;36.00;;;11.40;99.90;;;;;;4939302;28;20096;-75
2023/05/12 04:13:22;;;;;;;97.00;38.17;;;11.40;99.90;;;;;;4942440;28;20054;-75
2023/05/12 04:15:48;;;;;;;84.40;34.38;;;11.40;99.90;;;;;;4943201;28;20039;-74
2023/05/12 04:18:14;;;;;;;92.30;35.58;;;11.50;99.90;;;;;;4958375;28;20458;-75
2023/05/12 04:20:40;;;;;;;87.22;36.60;;;11.40;99.90;;;;;;4961109;28;20402;-75
2023/05/12 04:23:05;;;;;;;89.93;35.33;;;11.50;99.90;;;;;;4958338;28;20039;-75
2023/05/12 04:25:31;;;;;;;84.28;34.28;;;11.50;99.90;;;;;;4946050;28;20054;-75
2023/05/12 04:27:57;;;;;;;95.93;38.10;;;11.50;99.90;;;;;;4944902;28;20046;-75
2023/05/12 04:30:22;;;;;;;93.25;35.97;;;11.50;99.90;;;;;;4942000;28;20042;-75
2023/05/12 04:32:48;;;;;;;91.70;34.85;;;11.60;99.90;;;;;;4959761;28;20448;-75
2023/05/12 04:35:14;;;;;;;82.25;34.33;;;11.50;99.90;;;;;;4958741;28;20439;-75
2023/05/12 04:37:40;;;;;;;89.90;34.70;;;11.60;99.90;;;;;;4960912;28;20039;-75
2023/05/12 04:40:07;;;;;;;89.57;36.15;;;11.60;99.90;;;;;;4939816;28;20065;-74
2023/05/12 04:42:34;;;;;;;86.93;36.53;;;11.60;99.90;;;;;;4938645;28;20043;-75
2023/05/12 04:44:59;;;;;;;83.88;34.38;;;11.60;99.90;;;;;;4958152;28;20620;-75
2023/05/12 04:47:26;;;;;;;81.97;35.22;;;11.60;99.90;;;;;;4943823;28;20153;-75
2023/05/12 04:49:51;;;;;;;85.13;34.80;;;11.60;99.90;;;;;;4931288;28;20127;-75
2023/05/12 04:52:17;;;;;;;89.80;34.85;;;11.60;99.90;;;;;;4921943;29;20039;-74
2023/05/12 04:54:43;;;;;;;82.75;35.05;;;11.70;99.90;;;;;;4938023;29;20507;-75
2023/05/12 04:57:08;;;;;;;88.45;35.95;;;11.70;99.90;;;;;;4907546;29;20048;-75
2023/05/12 04:59:34;;;;;;;83.70;35.97;;;11.70;99.90;;;;;;4939128;28;20051;-75
2023/05/12 05:02:00;;;;;;;86.47;34.72;;;11.70;99.90;;;;;;4935012;28;20047;-75
2023/05/12 05:04:26;;;;;;;82.05;35.08;;;11.80;99.90;;;;;;4939808;28;20043;-76
2023/05/12 05:06:54;;;;;;;84.95;35.50;;;11.90;99.90;;;;;;4938994;28;20055;-76
2023/05/12 05:09:20;;;;;;;81.53;34.25;;;11.90;99.90;;;;;;4906478;29;20534;-76
2023/05/12 05:11:46;;;;;;;90.93;34.95;;;11.90;99.90;;;;;;4924324;29;20118;-76
2023/05/12 05:14:12;;;;;;;79.95;34.50;;;11.90;99.90;;;;;;4919587;29;20130;-76
2023/05/12 05:16:37;;;;;;;85.53;33.42;;;11.90;99.90;;;;;;4938555;29;20187;-76
2023/05/12 05:19:03;;;;;;;81.45;34.65;;;12.00;99.90;;;;;;4939253;29;20514;-75
2023/05/12 05:21:29;;;;;;;81.53;33.70;;;11.90;99.90;;;;;;4921127;29;20055;-76
2023/05/12 05:23:54;;;;;;;90.03;35.60;;;12.00;99.90;;;;;;4933351;28;20048;-76
2023/05/12 05:26:20;;;;;;;78.65;36.28;;;12.10;99.90;;;;;;4920828;29;20058;-75
2023/05/12 05:28:46;;;;;;;88.35;35.42;;;12.10;99.90;;;;;;4919938;28;20765;-76
2023/05/12 05:31:16;;;;;;;82.70;36.38;;;12.10;99.90;;;;;;4935392;28;20043;-76
2023/05/12 05:33:43;;;;;;;80.35;35.50;;;12.20;99.90;;;;;;4937205;28;20055;-75
2023/05/12 05:36:09;;;;;;;76.95;35.58;;;12.20;99.90;;;;;;4933819;28;20377;-76
2023/05/12 05:38:35;;;;;;;74.70;34.10;;;12.20;99.90;;;;;;4938657;28;20133;-75
2023/05/12 05:41:00;;;;;;;70.25;34.53;;;12.30;99.90;;;;;;4937453;28;20126;-75
2023/05/12 05:43:26;;;;;;;75.75;35.25;;;12.30;99.90;;;;;;4940989;29;20208;-75
2023/05/12 05:45:52;;;;;;;77.07;34.22;;;12.30;99.90;;;;;;4940548;28;20092;-75
2023/05/12 05:48:18;;;;;;;77.43;35.28;;;12.40;99.90;;;;;;4942327;28;20134;-75
2023/05/12 05:50:43;;;;;;;73.88;34.75;;;12.40;99.90;;;;;;4937091;28;20079;-76
2023/05/12 05:53:09;;;;;;;75.82;32.90;;;12.50;99.90;;;;;;4960105;28;20482;-75
2023/05/12 05:55:34;;;;;;;70.45;32.92;;;12.50;99.90;;;;;;4955699;28;20043;-76
2023/05/12 05:58:00;;;;;;;79.10;34.85;;;12.50;99.90;;;;;;4940069;28;20322;-76
2023/05/12 06:00:26;;;;;;;72.70;34.45;;;12.50;99.90;;;;;;4953156;28;20142;-76
2023/05/12 06:02:51;;;;;;;81.57;36.08;;;12.60;99.90;;;;;;4955990;28;20415;-75
2023/05/12 06:05:17;;;;;;;75.63;33.55;;;12.60;99.90;;;;;;4955714;28;20275;-74
2023/05/12 06:07:43;;;;;;;72.20;32.20;;;12.60;99.90;;;;;;4953184;28;20244;-74
2023/05/12 06:10:08;;;;;;;72.60;33.30;;;12.70;99.90;;;;;;4932575;28;20070;-74
2023/05/12 06:12:34;;;;;;;74.40;33.25;;;12.80;99.90;;;;;;4948905;28;20473;-73
2023/05/12 06:14:59;;;;;;;69.38;33.38;;;12.80;99.90;;;;;;4948390;28;20408;-74
2023/05/12 06:17:25;;;;;;;78.05;34.22;;;12.90;99.90;;;;;;4919137;28;20042;-74
2023/05/12 06:19:51;;;;;;;71.93;32.88;;;12.90;99.90;;;;;;4948775;28;20198;-75
2023/05/12 06:22:16;;;;;;;65.18;31.13;;;13.00;99.90;;;;;;4916708;28;20058;-74
2023/05/12 06:24:42;;;;;;;75.55;31.48;;;13.00;99.90;;;;;;4926986;28;22445;-75
2023/05/12 06:27:08;;;;;;;65.00;31.85;;;13.00;99.90;;;;;;4934928;28;20079;-75
2023/05/12 06:29:33;;;;;;;58.38;30.60;;;13.00;99.90;;;;;;4916300;28;20134;-74
2023/05/12 06:31:59;;;;;;;61.33;32.05;;;13.10;99.90;;;;;;4948734;28;20534;-74
2023/05/12 06:34:25;;;;;;;63.10;30.88;;;13.10;99.90;;;;;;4930434;28;20460;-74
2023/05/12 06:36:50;;;;;;;59.05;30.50;;;13.10;99.90;;;;;;4929490;28;20157;-73
2023/05/12 06:39:16;;;;;;;68.75;31.92;;;13.20;99.90;;;;;;4945077;28;20494;-73
2023/05/12 06:41:42;;;;;;;52.72;31.15;;;13.20;99.90;;;;;;4929425;28;20102;-73
2023/05/12 06:44:11;;;;;;;59.10;30.80;;;13.30;99.90;;;;;;4928522;28;20505;-73
2023/05/12 06:46:38;;;;;;;57.38;29.35;;;13.30;99.90;;;;;;4931539;28;20527;-73
2023/05/12 06:49:04;;;;;;;55.85;29.38;;;13.30;99.90;;;;;;4926387;28;20054;-74
2023/05/12 06:51:31;;;;;;;50.38;28.10;;;13.30;99.90;;;;;;4944070;28;20142;-73
2023/05/12 06:53:56;;;;;;;57.15;31.05;;;13.30;99.90;;;;;;4942185;28;20140;-74
2023/05/12 06:56:22;;;;;;;58.28;29.30;;;13.40;99.90;;;;;;4928473;28;20058;-72
2023/05/12 06:58:48;;;;;;;56.65;30.75;;;13.40;99.90;;;;;;4926816;28;20043;-73
2023/05/12 07:01:15;;;;;;;53.33;29.17;;;13.50;99.90;;;;;;4927569;28;21844;-72
2023/05/12 07:03:41;;;;;;;49.55;28.05;;;13.50;99.90;;;;;;4943895;28;20043;-73
2023/05/12 07:06:07;;;;;;;46.25;27.67;;;13.50;99.90;;;;;;4942779;28;20057;-73
2023/05/12 07:08:32;;;;;;;50.50;28.50;;;13.60;99.90;;;;;;4948391;28;20047;-72
2023/05/12 07:11:01;;;;;;;47.90;26.75;;;13.70;99.90;;;;;;4934553;28;20055;-73
2023/05/12 07:13:27;;;;;;;44.88;27.27;;;13.70;99.90;;;;;;4952229;28;20538;-73
2023/05/12 07:15:52;;;;;;;48.25;27.50;;;13.80;99.90;;;;;;4935191;28;20053;-72
2023/05/12 07:18:18;;;;;;;44.85;25.98;;;13.90;99.90;;;;;;4948784;28;20486;-73
2023/05/12 07:20:45;;;;;;;43.00;26.13;;;14.00;99.90;;;;;;4949083;28;20125;-72
2023/05/12 07:23:11;;;;;;;46.00;25.23;;;14.10;99.90;;;;;;4933877;28;20627;-73
2023/05/12 07:25:38;;;;;;;40.60;25.60;;;14.10;99.90;;;;;;4949235;28;20047;-72
2023/05/12 07:28:04;;;;;;;40.50;24.40;;;14.10;99.90;;;;;;4929940;28;20039;-73
2023/05/12 07:30:29;;;;;;;44.05;26.90;;;14.20;99.90;;;;;;4930888;28;20047;-72
2023/05/12 07:32:56;;;;;;;39.40;25.60;;;14.30;99.90;;;;;;4947516;28;20714;-73
2023/05/12 07:35:22;;;;;;;43.40;25.33;;;14.30;99.90;;;;;;4918441;28;20061;-72
2023/05/12 07:37:47;;;;;;;40.38;24.80;;;14.40;99.90;;;;;;4934735;28;20047;-73
2023/05/12 07:40:13;;;;;;;38.55;24.10;;;14.40;99.90;;;;;;4954234;28;20113;-72
2023/05/12 07:42:39;;;;;;;35.00;23.70;;;14.50;99.90;;;;;;4940371;28;20047;-73
2023/05/12 07:45:05;;;;;;;31.02;23.25;;;14.60;99.90;;;;;;4960906;28;20479;-73
2023/05/12 07:47:31;;;;;;;34.70;23.77;;;14.60;99.90;;;;;;4946197;28;20046;-72
2023/05/12 07:49:56;;;;;;;32.88;22.35;;;14.70;99.90;;;;;;4932744;28;20044;-73
2023/05/12 07:52:23;;;;;;;34.03;24.52;;;14.80;99.90;;;;;;4917875;28;20051;-72
2023/05/12 07:54:48;;;;;;;31.45;21.83;;;14.80;99.90;;;;;;4918946;28;20043;-72
2023/05/12 07:57:14;;;;;;;34.20;23.75;;;14.90;99.90;;;;;;4918498;28;20423;-74
2023/05/12 07:59:41;;;;;;;34.47;23.63;;;14.90;99.90;;;;;;4922747;29;20043;-73
2023/05/12 08:02:07;;;;;;;34.03;23.45;;;15.00;99.90;;;;;;4922968;29;20043;-73
2023/05/12 08:04:33;;;;;;;40.40;24.40;;;15.00;99.90;;;;;;4926215;29;20088;-70
2023/05/12 08:06:58;;;;;;;34.97;23.50;;;15.10;99.90;;;;;;4920485;28;20549;-72
2023/05/12 08:09:24;;;;;;;33.85;22.92;;;15.10;99.90;;;;;;4943415;29;20144;-71
2023/05/12 08:11:49;;;;;;;32.40;23.38;;;15.20;99.90;;;;;;4919581;29;20082;-71
2023/05/12 08:14:15;;;;;;;35.70;23.75;;;15.30;99.90;;;;;;4938713;28;20459;-70
2023/05/12 08:16:44;;;;;;;32.78;22.80;;;15.30;99.90;;;;;;4923044;28;20049;-71
2023/05/12 08:19:11;;;;;;;35.97;24.38;;;15.30;99.90;;;;;;4945056;28;20047;-71
2023/05/12 08:21:36;;;;;;;33.10;22.98;;;15.40;99.90;;;;;;4939678;28;20071;-71
2023/05/12 08:24:02;;;;;;;32.28;22.88;;;15.40;99.90;;;;;;4939969;28;20067;-72
2023/05/12 08:26:27;;;;;;;31.40;24.15;;;15.40;99.90;;;;;;4939846;28;20426;-72
2023/05/12 08:28:53;;;;;;;35.10;25.02;;;15.50;99.90;;;;;;4938207;28;20095;-71
2023/05/12 08:31:19;;;;;;;36.28;24.58;;;15.50;99.90;;;;;;4918941;28;20101;-70
2023/05/12 08:33:45;;;;;;;33.88;25.15;;;15.50;99.90;;;;;;4937676;28;20515;-70
2023/05/12 08:36:11;;;;;;;33.97;25.77;;;15.60;99.90;;;;;;4917788;29;20043;-70
2023/05/12 08:38:36;;;;;;;34.40;24.38;;;15.70;99.90;;;;;;4938098;28;20526;-70
2023/05/12 08:41:17;;;;;;;35.25;25.00;;;15.80;99.90;;;;;;4919412;29;20050;-71
2023/05/12 08:43:47;;;;;;;35.17;24.25;;;15.80;99.90;;;;;;4925743;28;20056;-71
2023/05/12 08:46:33;;;;;;;35.08;25.48;;;15.90;99.90;;;;;;4937942;28;20514;-71
2023/05/12 08:49:19;;;;;;;32.60;24.45;;;16.00;99.90;;;;;;4921769;28;20499;-72
2023/05/12 08:52:11;;;;;;;30.98;23.58;;;16.10;99.90;;;;;;4920400;28;20059;-72
2023/05/12 08:55:17;;;;;;;31.70;23.20;;;16.30;99.90;;;;;;4898160;29;20047;-71
2023/05/12 08:57:47;;;;;;;32.33;22.35;;;16.50;99.90;;;;;;4843734;28;20056;-71
2023/05/12 09:00:39;;;;;;;29.60;22.33;;;16.70;99.90;;;;;;4911326;28;20065;-71
2023/05/12 09:03:27;;;;;;;;;;;;;;;;;;;;;
2023/05/12 09:06:27;;;;;;;28.52;21.45;;;17.10;99.90;;;;;;4921365;28;20138;-71
2023/05/12 09:08:58;;;;;;;28.70;22.35;;;17.40;99.90;;;;;;4945290;28;20842;-71
2023/05/12 09:11:54;;;;;;;27.70;21.05;;;17.60;99.90;;;;;;4930871;28;20082;-73
2023/05/12 09:14:45;;;;;;;31.50;19.83;;;17.80;99.90;;;;;;4935932;28;20051;-74
2023/05/12 09:17:26;;;;;;;24.52;19.80;;;18.10;99.90;;;;;;4911338;28;20071;-75
2023/05/12 09:20:25;;;;;;;25.58;20.35;;;18.30;99.90;;;;;;4933764;28;20509;-77
2023/05/12 09:22:57;;;;;;;22.60;18.85;;;18.50;99.90;;;;;;4894484;29;20051;-73
2023/05/12 09:25:31;;;;;;;26.27;19.10;;;18.60;99.90;;;;;;4914006;28;20590;-73
2023/05/12 09:31:33;;;;;;;26.60;19.48;;;18.80;99.90;;;;;;4889843;28;20055;-74
2023/05/12 09:34:28;;;;;;;29.40;20.98;;;19.00;99.90;;;;;;4906227;29;20411;-72
2023/05/12 09:37:37;;;;;;;23.05;18.70;;;19.10;99.90;;;;;;4898662;28;20322;-73
2023/05/12 09:41:01;;;;;;;;;;;;;;;;;;;;;
2023/05/12 09:43:52;;;;;;;25.13;18.83;;;19.30;99.90;;;;;;4887363;29;20067;-74
2023/05/12 09:46:51;;;;;;;22.98;19.77;;;19.30;99.90;;;;;;4903706;29;20381;-74
2023/05/12 09:53:10;;;;;;;23.63;18.45;;;19.50;99.90;;;;;;4927272;28;20047;-74
2023/05/12 09:55:35;;;;;;;23.15;19.70;;;19.60;99.90;;;;;;4956217;28;20043;-72
2023/05/12 09:58:08;;;;;;;20.17;17.92;;;19.80;99.90;;;;;;4959046;28;20053;-73
2023/05/12 10:00:38;;;;;;;25.33;20.08;;;19.90;99.90;;;;;;4959831;28;20054;-73
2023/05/12 10:03:15;;;;;;;26.20;21.35;;;20.00;99.90;;;;;;4939350;28;20041;-73
2023/05/12 10:05:47;;;;;;;24.02;19.30;;;20.20;99.90;;;;;;4938960;28;20039;-73
2023/05/12 10:08:19;;;;;;;22.73;18.90;;;20.40;99.90;;;;;;4941026;28;20102;-73
2023/05/12 10:10:48;;;;;;;22.90;18.00;;;20.50;99.90;;;;;;4960221;28;20087;-73
2023/05/12 10:13:13;;;;;;;20.48;16.27;;;20.40;99.90;;;;;;4937782;28;20047;-73
2023/05/12 10:15:40;;;;;;;23.73;18.23;;;20.50;99.90;;;;;;4949308;28;20071;-69
2023/05/12 10:18:06;;;;;;;17.92;16.02;;;20.50;99.90;;;;;;4958286;28;21316;-70
2023/05/12 10:20:33;;;;;;;23.40;17.60;;;20.60;99.90;;;;;;4945697;28;20074;-76
2023/05/12 10:23:00;;;;;;;18.33;14.93;;;20.60;99.90;;;;;;4951105;28;20039;-73
2023/05/12 10:25:27;;;;;;;15.45;13.75;;;20.60;99.90;;;;;;4956348;28;20553;-73
2023/05/12 10:27:54;;;;;;;18.10;14.50;;;20.70;99.90;;;;;;4934685;28;20075;-72
2023/05/12 10:30:21;;;;;;;17.20;14.63;;;20.70;99.90;;;;;;4959274;28;20557;-73
2023/05/12 10:32:47;;;;;;;17.13;13.55;;;20.70;99.90;;;;;;4958179;28;20448;-73
2023/05/12 10:35:13;;;;;;;15.23;13.23;;;20.70;99.90;;;;;;4953819;28;20058;-73
2023/05/12 10:37:41;;;;;;;13.77;12.27;;;20.70;99.90;;;;;;4952519;28;20047;-73
2023/05/12 10:40:09;;;;;;;15.18;12.00;;;20.80;99.90;;;;;;4936553;28;20047;-73
2023/05/12 10:42:41;;;;;;;16.17;13.10;;;20.80;99.90;;;;;;4957342;28;20051;-71
2023/05/12 10:45:19;;;;;;;15.43;12.48;;;20.70;99.90;;;;;;4961206;28;20051;-73
2023/05/12 10:47:46;;;;;;;18.75;13.30;;;20.80;99.90;;;;;;4963682;28;20078;-79
2023/05/12 10:50:12;;;;;;;14.93;12.30;;;20.90;99.90;;;;;;4937983;28;20286;-72
2023/05/12 10:52:54;;;;;;;13.52;12.13;;;21.20;99.90;;;;;;4935923;29;20404;-72
2023/05/12 10:55:33;;;;;;;11.50;9.90;;;21.30;99.90;;;;;;4941168;28;20052;-72
2023/05/12 10:58:10;;;;;;;12.00;10.65;;;21.40;99.90;;;;;;4922032;29;20078;-72
2023/05/12 11:00:48;;;;;;;11.18;9.90;;;21.60;99.90;;;;;;4938896;28;20067;-71
2023/05/12 11:03:16;;;;;;;11.77;9.02;;;21.60;99.90;;;;;;4942893;28;20062;-73
2023/05/12 11:05:43;;;;;;;16.23;10.27;;;21.80;99.90;;;;;;4949543;28;20395;-72
2023/05/12 11:08:09;;;;;;;13.00;10.77;;;21.80;99.90;;;;;;4943734;28;20070;-72
2023/05/12 11:10:35;;;;;;;14.23;11.77;;;21.80;99.90;;;;;;4940803;28;20048;-72
2023/05/12 11:13:02;;;;;;;12.38;10.50;;;21.80;99.90;;;;;;4922309;29;20035;-72
2023/05/12 11:15:29;;;;;;;11.30;10.07;;;21.70;99.90;;;;;;4922319;28;20043;-72
2023/05/12 11:17:54;;;;;;;12.90;10.75;;;21.60;99.90;;;;;;4944237;28;20058;-72
2023/05/12 11:20:24;;;;;;;15.32;13.55;;;21.50;99.90;;;;;;4890917;29;20491;-72
2023/05/12 11:22:51;;;;;;;21.27;14.10;;;21.50;99.90;;;;;;4923790;28;20075;-77
2023/05/12 11:25:17;;;;;;;14.50;13.00;;;21.60;99.90;;;;;;4927701;28;20386;-75
2023/05/12 11:27:46;;;;;;;17.38;14.75;;;21.60;99.90;;;;;;4921437;29;20040;-76
2023/05/12 11:30:12;;;;;;;16.52;14.57;;;21.70;99.90;;;;;;4918042;29;20617;-76
2023/05/12 11:32:38;;;;;;;17.38;14.48;;;21.70;99.90;;;;;;4942044;28;20170;-76
2023/05/12 11:35:12;;;;;;;17.10;15.32;;;21.80;99.90;;;;;;4941826;28;20061;-76
2023/05/12 11:37:39;;;;;;;14.90;13.32;;;21.70;99.90;;;;;;4943107;28;20046;-74
2023/05/12 11:40:23;;;;;;;12.45;10.30;;;21.60;99.90;;;;;;4924119;28;20047;-75
2023/05/12 11:42:54;;;;;;;12.63;10.10;;;21.70;99.90;;;;;;4940496;28;20674;-74
2023/05/12 11:45:29;;;;;;;17.50;12.70;;;21.90;99.90;;;;;;4943114;28;20113;-74
2023/05/12 11:48:12;;;;;;;16.95;12.57;;;22.00;99.90;;;;;;4938753;28;20047;-74
2023/05/12 11:50:40;;;;;;;14.13;12.43;;;22.10;99.90;;;;;;4924664;28;20066;-72
2023/05/12 11:53:11;;;;;;;15.27;12.20;;;22.20;99.90;;;;;;4939146;28;20102;-75
2023/05/12 11:55:36;;;;;;;16.98;11.23;;;22.10;99.90;;;;;;4953895;28;20043;-74
2023/05/12 11:58:03;;;;;;;12.85;11.50;;;22.00;99.90;;;;;;4929019;28;20039;-75
2023/05/12 12:00:33;;;;;;;14.77;11.20;;;21.90;99.90;;;;;;4959263;28;20046;-74
2023/05/12 12:03:07;;;;;;;12.60;11.30;;;22.00;99.90;;;;;;4957672;28;20514;-73
2023/05/12 12:05:32;;;;;;;11.48;10.18;;;21.90;99.90;;;;;;4955261;28;20974;-74
2023/05/12 12:08:11;;;;;;;10.98;9.80;;;22.00;99.90;;;;;;4928659;28;20050;-75
2023/05/12 12:10:37;;;;;;;10.38;8.68;;;22.00;99.90;;;;;;4953478;28;20055;-74
2023/05/12 12:13:02;;;;;;;13.65;10.48;;;22.10;99.90;;;;;;4943033;28;20049;-78
2023/05/12 12:15:28;;;;;;;11.70;10.20;;;22.20;99.90;;;;;;4953733;28;20046;-79
2023/05/12 12:17:54;;;;;;;11.35;9.30;;;22.20;99.90;;;;;;4948586;28;20043;-72
2023/05/12 12:20:20;;;;;;;15.40;10.60;;;22.30;99.90;;;;;;4932907;28;20129;-76
2023/05/12 12:22:46;;;;;;;13.40;11.15;;;22.40;99.90;;;;;;4965809;28;20122;-73
2023/05/12 12:25:11;;;;;;;12.88;9.35;;;22.50;99.90;;;;;;4966019;28;20130;-71
2023/05/12 12:27:37;;;;;;;12.38;8.93;;;22.40;99.90;;;;;;4964038;28;20066;-72
2023/05/12 12:30:03;;;;;;;9.00;8.10;;;22.30;99.90;;;;;;4961418;28;20607;-75
2023/05/12 12:32:29;;;;;;;12.25;8.95;;;22.40;99.90;;;;;;4957446;28;20082;-76
2023/05/12 12:34:58;;;;;;;13.20;10.07;;;22.60;99.90;;;;;;4927944;28;20047;-76
2023/05/12 12:37:24;;;;;;;13.95;11.48;;;22.70;99.90;;;;;;4958784;28;20106;-73
2023/05/12 12:39:50;;;;;;;11.25;9.68;;;22.70;99.90;;;;;;4955628;28;20864;-75
2023/05/12 12:42:15;;;;;;;12.15;10.27;;;22.70;99.90;;;;;;4936461;28;20043;-75
2023/05/12 12:44:41;;;;;;;12.35;9.60;;;22.80;99.90;;;;;;4919703;28;20118;-75